Time;durP1;ratioP1;P1;durP2;ratioP2;P2;SDS_P1;SDS_P2;PMS_P1;PMS_P2;Temp;Humidity;BMP_temperature;BMP_pressure;BME280_temperature;BME280_humidity;BME280_pressure;Samples;Min_cycle;Max_cycle;Signal;HPM_P1;HPM_P2
2023/11/21 00:02:18;;;;;;;18.20;11.40;;;;;;;0.66;62.55;98945.11;107426;1255;68093;-38
2023/11/21 00:04:45;;;;;;;19.40;11.30;;;;;;;0.67;62.64;98940.02;107467;1257;73233;-38
2023/11/21 00:07:12;;;;;;;21.10;11.70;;;;;;;0.66;62.51;98940.44;107455;1260;60312;-38
2023/11/21 00:09:39;;;;;;;17.20;10.80;;;;;;;0.59;62.60;98948.64;107358;1255;60437;-38
2023/11/21 00:12:25;;;;;;;17.20;10.30;;;;;;;0.58;62.95;98952.02;107491;1254;74000;-38
2023/11/21 00:14:52;;;;;;;17.80;11.30;;;;;;;0.60;62.78;98951.29;107496;1258;67941;-38
2023/11/21 00:17:22;;;;;;;15.40;10.40;;;;;;;0.60;62.65;98948.94;107498;1254;72925;-38
2023/11/21 00:19:52;;;;;;;21.00;11.90;;;;;;;0.55;62.77;98948.87;107480;1259;60561;-38
2023/11/21 00:22:18;;;;;;;19.10;10.90;;;;;;;0.48;63.09;98943.48;107568;1255;60398;-38
2023/11/21 00:24:49;;;;;;;18.10;11.30;;;;;;;0.45;63.10;98944.94;107479;1255;74366;-38
2023/11/21 00:27:20;;;;;;;16.40;10.60;;;;;;;0.43;63.25;98944.40;107473;1260;67909;-38
2023/11/21 00:29:53;;;;;;;18.80;10.80;;;;;;;0.43;63.36;98948.39;107549;1259;72926;-38
2023/11/21 00:32:20;;;;;;;17.70;10.10;;;;;;;0.43;63.36;98935.98;107400;1257;60399;-38
2023/11/21 00:34:48;;;;;;;15.00;9.90;;;;;;;0.43;63.40;98940.08;107439;1258;60443;-38
2023/11/21 00:37:15;;;;;;;15.50;9.80;;;;;;;0.51;63.38;98939.52;107301;1258;73931;-38
2023/11/21 00:39:42;;;;;;;17.90;10.50;;;;;;;0.51;63.17;98940.58;107494;1259;66400;-38
2023/11/21 00:42:10;;;;;;;20.30;11.40;;;;;;;0.46;63.41;98943.52;107498;1260;73165;-38
2023/11/21 00:44:39;;;;;;;18.20;11.00;;;;;;;0.44;63.42;98943.45;107479;1254;59601;-38
2023/11/21 00:47:07;;;;;;;19.30;11.30;;;;;;;0.39;63.47;98944.11;107545;1254;60458;-38
2023/11/21 00:49:34;;;;;;;20.80;10.90;;;;;;;0.38;63.47;98943.27;107459;1255;73945;-38
2023/11/21 00:52:02;;;;;;;18.20;10.90;;;;;;;0.40;63.75;98941.04;107489;1254;67924;-39
2023/11/21 00:54:30;;;;;;;20.90;11.20;;;;;;;0.39;63.60;98947.16;107420;1255;70191;-38
2023/11/21 00:57:01;;;;;;;17.80;10.70;;;;;;;0.35;63.47;98951.08;107438;1254;60427;-38
2023/11/21 00:59:28;;;;;;;17.10;10.50;;;;;;;0.30;63.54;98956.84;107485;1254;60271;-38
2023/11/21 01:01:54;;;;;;;19.10;11.20;;;;;;;0.28;63.53;98966.61;107509;1255;74911;-38
2023/11/21 01:04:21;;;;;;;16.60;10.90;;;;;;;0.29;63.70;98969.52;107557;1255;67543;-38
2023/11/21 01:06:48;;;;;;;21.00;10.90;;;;;;;0.31;63.63;98970.95;106854;1255;1003795;-38
2023/11/21 01:09:18;;;;;;;17.60;11.20;;;;;;;0.32;63.77;98969.71;107506;1254;60431;-38
2023/11/21 01:11:46;;;;;;;;;;;;;;;0.34;63.73;98971.95;107557;1258;60440;-38
2023/11/21 01:14:14;;;;;;;16.30;10.80;;;;;;;0.33;63.51;98971.91;107528;1259;74378;-38
2023/11/21 01:16:41;;;;;;;18.10;11.80;;;;;;;0.31;63.72;98966.85;105982;1255;1003814;-38
2023/11/21 01:19:09;;;;;;;19.30;10.20;;;;;;;0.27;63.76;98966.29;107497;1254;73267;-39
2023/11/21 01:21:35;;;;;;;15.20;9.80;;;;;;;0.25;64.10;98966.83;107491;1254;60848;-38
2023/11/21 01:24:05;;;;;;;15.80;9.10;;;;;;;0.33;64.06;98967.50;107552;1254;60334;-38
2023/11/21 01:26:32;;;;;;;18.20;10.50;;;;;;;0.37;64.13;98970.17;107530;1254;73768;-38
2023/11/21 01:28:59;;;;;;;15.60;9.80;;;;;;;0.38;64.37;98966.33;107474;1257;67540;-38
2023/11/21 01:31:29;;;;;;;15.80;10.00;;;;;;;0.40;64.36;98962.63;107528;1257;73208;-38
2023/11/21 01:33:56;;;;;;;18.80;11.10;;;;;;;0.41;64.26;98955.58;107506;1254;60443;-38
2023/11/21 01:36:22;;;;;;;15.40;10.10;;;;;;;0.37;64.10;98955.77;107542;1258;60340;-38
2023/11/21 01:38:49;;;;;;;16.10;10.30;;;;;;;0.33;64.31;98953.95;107504;1254;74368;-39
2023/11/21 01:41:16;;;;;;;18.00;11.40;;;;;;;0.28;64.38;98961.48;107387;1260;68267;-38
2023/11/21 01:43:42;;;;;;;18.00;10.60;;;;;;;-0.10;64.64;98913.77;107421;1260;73276;-38
2023/11/21 01:46:10;;;;;;;17.10;10.70;;;;;;;0.18;64.66;98962.73;107530;1258;60543;-38
2023/11/21 01:48:37;;;;;;;19.40;11.10;;;;;;;0.12;64.96;98968.14;107332;1259;60453;-37
2023/11/21 01:51:06;;;;;;;16.90;10.30;;;;;;;0.10;65.03;98972.66;107393;1255;173050;-38
2023/11/21 01:54:22;;;;;;;19.90;11.30;;;;;;;0.13;64.99;98978.14;104264;1292;600443;-38
2023/11/21 01:56:50;;;;;;;19.30;10.90;;;;;;;0.13;64.73;98987.84;106631;1266;59356;-38
2023/11/21 01:59:21;;;;;;;16.50;11.20;;;;;;;0.11;64.70;98983.70;106582;1267;60001;-38
2023/11/21 02:01:50;;;;;;;17.50;10.90;;;;;;;0.09;64.78;98978.64;106669;1267;72243;-38
2023/11/21 02:04:19;;;;;;;17.70;10.70;;;;;;;0.11;64.97;98991.66;106726;1265;66762;-38
2023/11/21 02:06:50;;;;;;;;;;;;;;;0.13;64.87;98998.08;106548;1267;172286;-40
2023/11/21 02:09:27;;;;;;;18.10;11.00;;;;;;;0.15;65.22;98997.60;106852;1267;59346;-38
2023/11/21 02:11:54;;;;;;;18.30;11.60;;;;;;;0.16;65.00;98994.48;106788;1267;60089;-38
2023/11/21 02:14:26;;;;;;;17.80;12.10;;;;;;;0.14;65.02;98994.84;106775;1263;72211;-38
2023/11/21 02:16:55;;;;;;;19.10;11.40;;;;;;;0.10;65.00;98995.58;106728;1264;67779;-38
2023/11/21 02:19:25;;;;;;;17.10;11.10;;;;;;;0.07;64.90;98997.56;106866;1264;72697;-38
2023/11/21 02:21:53;;;;;;;17.20;10.70;;;;;;;0.07;64.83;98999.52;106831;1267;59476;-38
2023/11/21 02:24:21;;;;;;;17.40;11.00;;;;;;;0.07;64.88;98995.86;106788;1263;59565;-38
2023/11/21 02:26:52;;;;;;;18.90;11.90;;;;;;;0.06;64.98;98994.38;106844;1264;71848;-38
2023/11/21 02:29:27;;;;;;;20.50;11.10;;;;;;;0.05;65.12;98994.25;106104;1263;1003109;-37
2023/11/21 02:31:55;;;;;;;20.00;12.20;;;;;;;0.03;65.02;98991.36;106788;1263;72675;-39
2023/11/21 02:34:24;;;;;;;17.80;10.90;;;;;;;-0.01;65.04;98990.11;106821;1263;59824;-38
2023/11/21 02:36:53;;;;;;;18.90;11.70;;;;;;;-0.07;65.21;98994.98;106856;1263;60005;-38
2023/11/21 02:39:24;;;;;;;17.50;11.10;;;;;;;-0.14;65.28;98995.13;106822;1262;73067;-37
2023/11/21 02:41:52;;;;;;;17.00;10.30;;;;;;;-0.19;65.35;98991.33;106808;1267;67382;-38
2023/11/21 02:44:20;;;;;;;19.20;11.30;;;;;;;-0.17;65.23;98993.15;106845;1263;71387;-38
2023/11/21 02:46:48;;;;;;;15.70;10.70;;;;;;;-0.18;65.42;98994.39;106717;1266;59695;-39
2023/11/21 02:49:15;;;;;;;19.60;11.90;;;;;;;-0.18;65.48;98993.33;106729;1264;60051;-38
2023/11/21 02:51:43;;;;;;;18.00;11.20;;;;;;;-0.19;65.57;98994.95;106734;1263;73073;-38
2023/11/21 02:54:12;;;;;;;17.70;11.60;;;;;;;-0.25;65.53;98999.08;106842;1262;67573;-38
2023/11/21 02:56:39;;;;;;;21.90;12.50;;;;;;;-0.27;65.74;99007.48;106752;1264;71445;-38
2023/11/21 02:59:07;;;;;;;20.30;11.60;;;;;;;-0.31;65.87;99013.36;106707;1264;59907;-39
2023/11/21 03:01:35;;;;;;;20.70;11.90;;;;;;;-0.34;65.85;99016.37;106760;1264;60027;-39
2023/11/21 03:04:03;;;;;;;19.50;12.00;;;;;;;-0.39;65.98;99016.08;106741;1268;73093;-39
2023/11/21 03:06:30;;;;;;;21.00;12.70;;;;;;;-0.47;65.95;99018.34;106794;1263;67573;-39
2023/11/21 03:08:58;;;;;;;18.40;12.30;;;;;;;-0.55;66.20;99017.92;106781;1264;72910;-39
2023/11/21 03:11:26;;;;;;;18.70;11.40;;;;;;;-0.60;66.36;99022.05;106770;1268;59757;-39
2023/11/21 03:13:53;;;;;;;19.20;12.10;;;;;;;-0.57;66.49;99024.60;105267;1263;1003705;-39
2023/11/21 03:16:21;;;;;;;19.60;12.20;;;;;;;-0.60;66.64;99028.77;106758;1263;73090;-39
2023/11/21 03:18:49;;;;;;;23.80;13.00;;;;;;;-0.64;66.83;99032.98;106774;1263;67744;-39
2023/11/21 03:21:16;;;;;;;23.60;13.40;;;;;;;-0.64;66.93;99028.04;106700;1263;72680;-39
2023/11/21 03:23:44;;;;;;;20.80;12.80;;;;;;;-0.65;67.08;99031.84;106655;1265;59644;-39
2023/11/21 03:26:12;;;;;;;24.90;14.10;;;;;;;-0.65;66.98;99035.88;106765;1263;59552;-39
2023/11/21 03:28:40;;;;;;;22.90;13.80;;;;;;;-0.65;67.19;99033.97;106765;1264;73052;-39
2023/11/21 03:31:08;;;;;;;24.20;13.50;;;;;;;-0.67;67.16;99036.66;106736;1263;67587;-39
2023/11/21 03:33:36;;;;;;;24.10;13.80;;;;;;;-0.70;67.19;99034.80;106781;1264;72711;-39
2023/11/21 03:36:05;;;;;;;21.10;13.20;;;;;;;-0.74;67.36;99036.80;106786;1263;59819;-39
2023/11/21 03:38:32;;;;;;;22.30;13.20;;;;;;;-0.73;67.36;99033.11;106859;1263;59359;-39
2023/11/21 03:41:00;;;;;;;20.80;13.30;;;;;;;-0.67;67.27;99034.11;106820;1264;71742;-39
2023/11/21 03:43:29;;;;;;;20.30;13.40;;;;;;;-0.65;67.32;99033.05;106815;1264;66316;-39
2023/11/21 03:45:57;;;;;;;25.00;13.80;;;;;;;-0.66;67.33;99038.61;106776;1263;72701;-39
2023/11/21 03:48:26;;;;;;;22.70;13.70;;;;;;;-0.69;67.47;99037.45;106810;1263;59627;-39
2023/11/21 03:50:53;;;;;;;24.40;14.00;;;;;;;-0.75;67.45;99041.44;107251;1256;59967;-39
2023/11/21 03:53:21;;;;;;;25.30;14.30;;;;;;;-0.82;67.56;99045.23;107240;1256;73084;-39
2023/11/21 03:55:49;;;;;;;23.40;14.70;;;;;;;-0.89;67.79;99037.84;106536;1257;1003000;-39
2023/11/21 03:58:17;;;;;;;22.00;13.40;;;;;;;-0.93;67.93;99035.89;106441;1260;1003031;-39
2023/11/21 04:00:48;;;;;;;23.50;15.20;;;;;;;-0.90;68.19;99039.36;107080;1256;59733;-39
2023/11/21 04:03:16;;;;;;;23.80;15.00;;;;;;;-0.85;68.18;99044.85;107170;1257;60010;-39
2023/11/21 04:05:45;;;;;;;24.50;15.30;;;;;;;-0.86;68.35;99042.73;107188;1256;73058;-39
2023/11/21 04:08:13;;;;;;;25.60;15.50;;;;;;;-0.87;68.20;99053.66;107118;1257;66481;-39
2023/11/21 04:10:41;;;;;;;25.80;15.00;;;;;;;-0.86;68.61;99052.89;107144;1257;71408;-39
2023/11/21 04:13:10;;;;;;;22.30;11.90;;;;;;;-0.83;68.56;99049.29;107177;1256;59599;-39
2023/11/21 04:15:38;;;;;;;26.70;15.90;;;;;;;-0.81;68.45;99045.68;107277;1257;59694;-39
2023/11/21 04:18:05;;;;;;;24.60;15.20;;;;;;;-0.79;68.40;99054.91;107252;1255;71994;-39
2023/11/21 04:20:33;;;;;;;25.70;16.60;;;;;;;-0.76;68.23;99047.84;107231;1256;67209;-39
2023/11/21 04:23:01;;;;;;;21.70;14.50;;;;;;;-0.74;67.99;99055.31;107235;1256;71405;-39
2023/11/21 04:25:28;;;;;;;25.30;15.00;;;;;;;-0.67;67.90;99050.60;107222;1256;59389;-39
2023/11/21 04:27:56;;;;;;;23.30;14.20;;;;;;;-0.65;67.96;99053.56;107190;1256;60061;-39
2023/11/21 04:30:24;;;;;;;29.20;15.60;;;;;;;-0.65;68.14;99056.38;107294;1256;71759;-39
2023/11/21 04:32:51;;;;;;;25.30;15.50;;;;;;;-0.62;68.23;99052.02;107243;1256;67573;-39
2023/11/21 04:35:19;;;;;;;27.60;16.40;;;;;;;-0.59;68.08;99050.05;107220;1260;73163;-39
2023/11/21 04:37:47;;;;;;;26.10;16.00;;;;;;;-0.61;67.87;99047.73;107247;1256;59690;-39
2023/11/21 04:40:15;;;;;;;28.70;16.80;;;;;;;-0.68;67.86;99049.25;107261;1257;60053;-39
2023/11/21 04:42:42;;;;;;;25.50;15.50;;;;;;;-0.72;68.17;99054.54;107245;1256;70801;-39
2023/11/21 04:45:11;;;;;;;30.20;14.80;;;;;;;-0.67;68.22;99059.93;107239;1256;67733;-39
2023/11/21 04:47:40;;;;;;;24.70;15.50;;;;;;;-0.57;68.15;99062.45;105766;1256;1003743;-39
2023/11/21 04:50:08;;;;;;;26.70;15.70;;;;;;;-0.50;68.15;99069.42;107255;1256;59572;-39
2023/11/21 04:52:36;;;;;;;25.80;16.20;;;;;;;-0.46;68.16;99068.70;107164;1256;59625;-39
2023/11/21 04:55:06;;;;;;;26.00;16.10;;;;;;;-0.39;68.01;99071.35;107275;1256;73008;-39
2023/11/21 04:57:34;;;;;;;27.70;16.90;;;;;;;-0.32;67.62;99071.13;107305;1256;67515;-39
2023/11/21 05:00:05;;;;;;;27.00;16.00;;;;;;;-0.30;67.48;99078.39;107242;1256;71671;-39
2023/11/21 05:02:38;;;;;;;26.60;16.30;;;;;;;-0.29;67.25;99079.38;107253;1257;59261;-39
2023/11/21 05:05:07;;;;;;;27.40;17.00;;;;;;;-0.30;67.21;99075.45;107241;1260;59589;-39
2023/11/21 05:07:35;;;;;;;29.50;17.10;;;;;;;-0.29;67.12;99071.86;107268;1255;73058;-39
2023/11/21 05:10:08;;;;;;;30.50;17.50;;;;;;;-0.33;67.04;99069.82;107266;1257;66405;-39
2023/11/21 05:12:39;;;;;;;31.20;17.80;;;;;;;-0.40;67.28;99067.18;107230;1256;72742;-39
2023/11/21 05:15:09;;;;;;;30.00;17.30;;;;;;;-0.38;67.12;99070.87;107213;1257;59721;-39
2023/11/21 05:17:39;;;;;;;30.30;16.90;;;;;;;-0.34;67.00;99073.83;107199;1256;59753;-39
2023/11/21 05:20:09;;;;;;;26.50;17.70;;;;;;;-0.40;67.35;99079.27;107159;1256;73293;-39
2023/11/21 05:22:37;;;;;;;31.00;18.40;;;;;;;-0.48;67.63;99082.16;107147;1256;66421;-39
2023/11/21 05:25:07;;;;;;;28.00;17.90;;;;;;;-0.56;67.74;99085.02;107104;1256;72734;-39
2023/11/21 05:27:35;;;;;;;29.40;17.90;;;;;;;-0.62;68.07;99097.10;107369;1256;59643;-39
2023/11/21 05:30:05;;;;;;;32.80;18.20;;;;;;;-0.64;68.34;99103.59;107373;1256;60061;-39
2023/11/21 05:32:33;;;;;;;29.40;18.10;;;;;;;-0.67;68.52;99106.49;107249;1256;71901;-39
2023/11/21 05:35:01;;;;;;;31.40;18.40;;;;;;;-0.62;68.45;99105.27;107109;1256;66421;-39
2023/11/21 05:37:29;;;;;;;26.80;17.90;;;;;;;-0.53;68.32;99106.95;106354;1255;1003279;-39
2023/11/21 05:39:57;;;;;;;32.50;19.40;;;;;;;-0.46;68.39;99110.30;107115;1256;59311;-39
2023/11/21 05:42:24;;;;;;;34.00;19.80;;;;;;;-0.40;68.39;99118.46;107215;1256;59720;-39
2023/11/21 05:44:52;;;;;;;28.90;18.60;;;;;;;-0.35;68.11;99130.48;107256;1257;73088;-39
2023/11/21 05:47:21;;;;;;;31.50;19.40;;;;;;;-0.31;68.08;99129.98;107431;1257;67564;-39
2023/11/21 05:49:51;;;;;;;33.70;19.70;;;;;;;-0.32;68.02;99131.73;107437;1256;72651;-39
2023/11/21 05:52:18;;;;;;;34.00;20.50;;;;;;;-0.33;67.95;99137.35;107241;1256;59595;-39
2023/11/21 05:54:46;;;;;;;35.10;20.40;;;;;;;-0.36;67.95;99141.40;107250;1256;59579;-39
2023/11/21 05:57:13;;;;;;;33.10;19.30;;;;;;;-0.36;68.00;99147.05;107234;1256;71782;-39
2023/11/21 05:59:41;;;;;;;32.30;19.70;;;;;;;-0.32;67.92;99149.81;107229;1256;66657;-39
2023/11/21 06:02:08;;;;;;;36.30;20.90;;;;;;;-0.25;67.99;99148.73;107278;1259;70462;-39
2023/11/21 06:04:36;;;;;;;33.00;20.80;;;;;;;-0.25;68.05;99152.77;107106;1257;60437;-39
2023/11/21 06:07:04;;;;;;;40.40;20.80;;;;;;;-0.27;68.17;99149.60;107165;1257;60319;-39
2023/11/21 06:09:31;;;;;;;38.00;22.00;;;;;;;-0.29;68.45;99150.38;107150;1256;73788;-39
2023/11/21 06:11:59;;;;;;;33.10;20.70;;;;;;;-0.30;68.45;99147.70;107238;1256;67641;-39
2023/11/21 06:14:27;;;;;;;35.00;21.00;;;;;;;-0.33;68.62;99150.98;107385;1256;72687;-39
2023/11/21 06:16:56;;;;;;;31.80;20.40;;;;;;;-0.35;68.59;99150.50;107325;1256;60450;-39
2023/11/21 06:19:24;;;;;;;33.10;20.00;;;;;;;-0.37;68.70;99146.63;107250;1256;60523;-39
2023/11/21 06:21:51;;;;;;;33.60;19.60;;;;;;;-0.36;68.59;99136.82;107246;1256;73828;-39
2023/11/21 06:24:21;;;;;;;35.40;20.80;;;;;;;-0.34;68.60;99137.23;107245;1256;67570;-39
2023/11/21 06:26:48;;;;;;;35.00;21.00;;;;;;;-0.36;69.08;99136.98;107218;1257;71694;-39
2023/11/21 06:29:16;;;;;;;34.50;22.10;;;;;;;-0.37;69.17;99141.99;107223;1256;60330;-39
2023/11/21 06:31:43;;;;;;;35.80;21.50;;;;;;;-0.33;69.44;99138.95;107245;1256;60431;-39
2023/11/21 06:34:11;;;;;;;39.90;23.40;;;;;;;-0.29;69.27;99144.11;107254;1255;73866;-39
2023/11/21 06:36:38;;;;;;;38.90;23.90;;;;;;;-0.29;69.29;99143.30;107270;1257;67715;-39
2023/11/21 06:39:07;;;;;;;41.00;22.60;;;;;;;-0.28;69.40;99137.39;107226;1260;72746;-39
2023/11/21 06:41:34;;;;;;;34.60;21.40;;;;;;;-0.26;69.21;99143.68;107227;1256;60905;-39
2023/11/21 06:44:02;;;;;;;32.80;20.60;;;;;;;-0.23;69.25;99141.65;107126;1255;60099;-39
2023/11/21 06:46:30;;;;;;;35.00;21.40;;;;;;;-0.25;69.59;99149.63;107127;1256;73852;-39
2023/11/21 06:48:58;;;;;;;38.80;22.40;;;;;;;-0.25;69.76;99146.44;107209;1260;67570;-39
2023/11/21 06:51:25;;;;;;;39.60;23.50;;;;;;;-0.24;69.58;99142.15;107245;1257;72711;-39
2023/11/21 06:53:53;;;;;;;36.10;22.70;;;;;;;-0.24;69.57;99145.97;107170;1256;60649;-39
2023/11/21 06:56:21;;;;;;;40.10;22.80;;;;;;;-0.24;69.64;99144.88;107149;1256;59641;-38
2023/11/21 06:58:48;;;;;;;37.50;21.80;;;;;;;-0.23;69.73;99142.88;107156;1256;72578;-38
2023/11/21 07:01:16;;;;;;;36.60;21.60;;;;;;;-0.18;69.51;99148.65;107325;1255;67583;-38
2023/11/21 07:03:45;;;;;;;39.20;22.30;;;;;;;-0.16;69.72;99153.85;107178;1257;72618;-38
2023/11/21 07:06:12;;;;;;;43.20;23.50;;;;;;;-0.18;69.95;99158.08;107249;1256;60426;-37
2023/11/21 07:08:42;;;;;;;41.20;22.90;;;;;;;-0.16;69.88;99155.92;107247;1256;60446;-38
2023/11/21 07:11:10;;;;;;;40.90;24.20;;;;;;;-0.14;70.05;99152.77;107236;1256;72881;-38
2023/11/21 07:13:37;;;;;;;40.40;23.70;;;;;;;-0.13;69.73;99151.59;107262;1256;66652;-38
2023/11/21 07:16:05;;;;;;;42.20;21.20;;;;;;;-0.15;69.60;99160.27;107224;1256;72746;-38
2023/11/21 07:18:33;;;;;;;37.60;22.20;;;;;;;-0.09;69.37;99163.68;107294;1256;60932;-38
2023/11/21 07:21:00;;;;;;;35.90;21.40;;;;;;;-0.03;69.45;99162.17;107240;1260;60363;-38
2023/11/21 07:23:28;;;;;;;32.40;20.90;;;;;;;-0.02;69.61;99166.05;107230;1255;73751;-38
2023/11/21 07:25:55;;;;;;;30.00;18.70;;;;;;;0.04;69.59;99169.02;107275;1256;67559;-38
2023/11/21 07:28:24;;;;;;;33.10;19.10;;;;;;;0.06;69.13;99170.00;107401;1256;72983;-38
2023/11/21 07:30:52;;;;;;;36.10;18.20;;;;;;;0.10;68.79;99168.91;106528;1256;1003172;-38
2023/11/21 07:33:21;;;;;;;28.30;17.80;;;;;;;0.09;68.18;99167.61;106519;1260;1002996;-38
2023/11/21 07:35:48;;;;;;;30.40;17.70;;;;;;;0.06;68.03;99170.55;107222;1260;73863;-39
2023/11/21 07:38:16;;;;;;;26.80;16.30;;;;;;;0.04;68.10;99159.94;107271;1256;67566;-39
2023/11/21 07:40:43;;;;;;;29.50;17.30;;;;;;;0.07;67.86;99156.08;107235;1257;72730;-38
2023/11/21 07:43:11;;;;;;;27.80;17.60;;;;;;;0.06;68.07;99161.27;105750;1256;1003820;-39
2023/11/21 07:45:38;;;;;;;28.00;18.10;;;;;;;0.04;68.23;99151.52;107263;1255;60288;-39
2023/11/21 07:48:06;;;;;;;28.70;17.70;;;;;;;0.04;68.09;99156.52;107148;1256;73859;-39
2023/11/21 07:50:34;;;;;;;30.70;18.30;;;;;;;0.02;67.97;99161.77;107210;1257;66976;-39
2023/11/21 07:53:01;;;;;;;29.30;17.60;;;;;;;0.03;68.21;99168.58;107126;1257;72703;-39
2023/11/21 07:55:32;;;;;;;26.80;17.10;;;;;;;0.04;68.37;99178.63;107305;1256;60415;-39
2023/11/21 07:57:59;;;;;;;29.40;17.50;;;;;;;0.16;68.24;99177.02;107325;1256;60134;-39
2023/11/21 08:00:30;;;;;;;26.70;17.70;;;;;;;0.32;67.97;99175.11;107166;1260;73086;-39
2023/11/21 08:02:57;;;;;;;30.20;17.70;;;;;;;0.41;68.03;99182.30;107217;1256;67763;-39
2023/11/21 08:05:25;;;;;;;27.90;17.30;;;;;;;0.46;67.54;99177.02;107240;1256;72690;-39
2023/11/21 08:08:04;;;;;;;27.80;17.20;;;;;;;0.51;67.17;99181.73;107275;1255;61171;-39
2023/11/21 08:10:31;;;;;;;27.00;17.30;;;;;;;0.51;66.66;99182.33;106557;1256;1003076;-39
2023/11/21 08:12:59;;;;;;;28.10;17.80;;;;;;;0.49;66.46;99184.60;107237;1256;73852;-39
2023/11/21 08:15:27;;;;;;;31.00;19.10;;;;;;;0.50;66.33;99194.98;107223;1256;67899;-39
2023/11/21 08:17:54;;;;;;;30.30;18.40;;;;;;;0.48;66.35;99197.63;107230;1255;72730;-39
2023/11/21 08:20:22;;;;;;;27.30;16.20;;;;;;;0.49;66.55;99200.55;107160;1256;60434;-39
2023/11/21 08:22:51;;;;;;;25.30;16.60;;;;;;;0.56;66.44;99199.44;107216;1256;60443;-39
2023/11/21 08:25:19;;;;;;;26.50;16.30;;;;;;;0.64;66.46;99202.22;107251;1257;73871;-39
2023/11/21 08:27:48;;;;;;;27.90;16.00;;;;;;;0.69;66.21;99199.39;107318;1255;67648;-39
2023/11/21 08:30:16;;;;;;;29.00;17.50;;;;;;;0.73;65.95;99200.65;107231;1256;72514;-39
2023/11/21 08:32:44;;;;;;;27.50;17.20;;;;;;;0.73;65.91;99199.84;107258;1256;61214;-39
2023/11/21 08:35:12;;;;;;;29.40;18.70;;;;;;;0.73;65.96;99194.60;107269;1257;60029;-39
2023/11/21 08:37:40;;;;;;;27.70;18.00;;;;;;;0.74;65.81;99200.83;107237;1255;73827;-38
2023/11/21 08:40:09;;;;;;;25.60;16.20;;;;;;;0.78;65.91;99200.81;107269;1255;67598;-38
2023/11/21 08:42:37;;;;;;;25.40;16.20;;;;;;;0.83;65.58;99196.91;107327;1257;71908;-38
2023/11/21 08:45:08;;;;;;;27.70;17.30;;;;;;;0.90;65.11;99191.69;107237;1256;60240;-38
2023/11/21 08:47:36;;;;;;;28.00;17.30;;;;;;;0.96;64.87;99184.62;107270;1257;60480;-39
2023/11/21 08:50:07;;;;;;;27.10;17.20;;;;;;;0.97;64.78;99183.05;106498;1256;1002854;-39
2023/11/21 08:52:36;;;;;;;26.30;15.00;;;;;;;1.02;64.61;99179.52;107281;1256;67898;-39
2023/11/21 08:55:08;;;;;;;23.60;13.70;;;;;;;1.14;64.56;99172.47;107263;1256;71521;-39
2023/11/21 08:57:35;;;;;;;21.30;13.30;;;;;;;1.23;64.06;99173.40;107252;1256;60473;-38
2023/11/21 09:00:07;;;;;;;24.30;14.70;;;;;;;1.31;63.75;99182.02;107245;1256;60486;-39
2023/11/21 09:02:36;;;;;;;25.30;14.90;;;;;;;1.36;63.25;99182.23;107055;1256;73866;-38
2023/11/21 09:05:09;;;;;;;28.40;14.90;;;;;;;1.43;63.08;99183.65;107083;1256;68086;-38
2023/11/21 09:07:37;;;;;;;24.60;14.50;;;;;;;1.46;62.84;99180.59;107133;1256;73074;-38
2023/11/21 09:10:07;;;;;;;25.90;15.20;;;;;;;1.41;62.73;99170.41;107202;1260;60536;-38
2023/11/21 09:12:37;;;;;;;24.40;15.10;;;;;;;1.50;62.50;99180.88;107157;1257;60356;-38
2023/11/21 09:15:05;;;;;;;25.40;16.60;;;;;;;1.49;62.58;99179.74;107197;1256;73894;-38
2023/11/21 09:17:34;;;;;;;24.10;16.40;;;;;;;1.50;62.64;99174.30;107155;1256;67975;-38
2023/11/21 09:20:05;;;;;;;18.80;12.20;;;;;;;1.49;62.66;99172.52;107222;1256;72669;-38
2023/11/21 09:22:33;;;;;;;29.20;16.50;;;;;;;1.49;62.43;99169.59;107121;1257;59649;-38
2023/11/21 09:25:04;;;;;;;27.30;17.20;;;;;;;1.47;62.71;99169.95;107154;1256;60388;-38
2023/11/21 09:27:32;;;;;;;27.00;17.60;;;;;;;1.47;63.12;99170.95;107224;1260;72672;-38
2023/11/21 09:30:00;;;;;;;28.80;17.30;;;;;;;1.49;63.43;99167.17;107086;1256;66815;-38
2023/11/21 09:32:29;;;;;;;28.80;17.90;;;;;;;1.58;63.19;99170.98;107083;1256;72694;-38
2023/11/21 09:34:58;;;;;;;21.80;13.30;;;;;;;1.64;63.26;99170.17;107132;1256;60403;-38
2023/11/21 09:37:27;;;;;;;29.20;17.30;;;;;;;1.65;63.20;99167.95;107135;1256;60576;-38
2023/11/21 09:39:55;;;;;;;28.20;17.70;;;;;;;1.68;63.00;99168.26;107142;1256;73043;-38
2023/11/21 09:42:36;;;;;;;29.50;17.70;;;;;;;1.69;63.19;99169.12;107121;1256;67920;-38
2023/11/21 09:45:10;;;;;;;26.70;18.70;;;;;;;1.70;62.91;99166.05;107082;1257;73077;-38
2023/11/21 09:47:38;;;;;;;33.90;19.40;;;;;;;1.71;62.69;99164.33;107149;1256;60464;-38
2023/11/21 09:50:10;;;;;;;33.20;19.20;;;;;;;1.68;62.88;99162.37;107205;1256;60427;-38
2023/11/21 09:53:06;;;;;;;29.90;18.30;;;;;;;1.66;62.78;99165.20;107174;1256;72680;-39
2023/11/21 09:55:36;;;;;;;27.50;17.60;;;;;;;1.62;62.94;99159.31;107079;1257;66283;-38
2023/11/21 09:58:07;;;;;;;27.60;16.80;;;;;;;1.61;63.16;99160.98;107113;1257;72064;-38
2023/11/21 10:00:35;;;;;;;26.80;17.80;;;;;;;1.65;63.05;99161.37;107120;1256;60684;-38
2023/11/21 10:03:04;;;;;;;23.90;15.00;;;;;;;1.65;62.90;99161.33;107098;1256;60393;-38
2023/11/21 10:05:34;;;;;;;23.60;14.40;;;;;;;1.60;62.67;99160.11;107071;1262;72131;-38
2023/11/21 10:08:12;;;;;;;22.90;14.20;;;;;;;1.57;62.18;99156.51;107083;1256;69103;-38
2023/11/21 10:10:47;;;;;;;22.40;14.10;;;;;;;1.53;62.11;99153.78;107065;1257;71452;-38
2023/11/21 10:13:16;;;;;;;31.20;17.60;;;;;;;1.53;62.53;99154.04;107103;1262;60794;-38
2023/11/21 10:15:51;;;;;;;22.00;14.70;;;;;;;1.58;63.00;99152.27;107102;1256;60344;-38
2023/11/21 10:18:19;;;;;;;22.60;15.40;;;;;;;1.69;62.74;99156.98;107194;1256;73837;-38
2023/11/21 10:20:51;;;;;;;23.00;15.20;;;;;;;1.79;62.52;99154.84;107141;1257;68324;-38
2023/11/21 10:23:22;;;;;;;24.90;15.40;;;;;;;1.81;62.69;99158.25;107076;1258;73046;-38
2023/11/21 10:25:52;;;;;;;22.50;15.00;;;;;;;1.83;62.60;99163.80;107180;1259;61090;-38
2023/11/21 10:28:20;;;;;;;23.00;14.50;;;;;;;1.89;62.31;99162.27;107302;1256;60446;-38
2023/11/21 10:30:49;;;;;;;25.60;15.90;;;;;;;1.97;62.07;99157.08;107180;1256;73323;-38
2023/11/21 10:33:17;;;;;;;29.50;15.70;;;;;;;2.03;62.21;99152.10;107109;1256;69434;-38
2023/11/21 10:35:53;;;;;;;27.40;15.60;;;;;;;2.06;61.81;99162.09;107088;1262;72468;-39
2023/11/21 10:38:23;;;;;;;25.10;15.50;;;;;;;2.12;61.76;99168.06;107157;1258;60494;-39
2023/11/21 10:40:51;;;;;;;30.60;15.20;;;;;;;2.13;61.55;99171.23;107131;1256;60317;-39
2023/11/21 10:43:18;;;;;;;34.10;16.10;;;;;;;2.10;61.11;99172.92;107144;1256;76005;-39
2023/11/21 10:45:46;;;;;;;29.40;15.60;;;;;;;2.07;61.19;99168.55;107107;1256;67798;-39
2023/11/21 10:48:18;;;;;;;31.70;16.40;;;;;;;2.08;61.24;99172.05;107061;1256;72776;-39
2023/11/21 10:50:46;;;;;;;31.80;15.90;;;;;;;2.10;61.41;99180.89;107103;1256;60373;-40
2023/11/21 10:53:14;;;;;;;31.10;15.40;;;;;;;2.14;61.38;99178.17;107173;1256;60473;-39
2023/11/21 10:55:44;;;;;;;28.10;14.90;;;;;;;2.15;61.40;99172.16;107178;1256;74020;-39
2023/11/21 10:58:13;;;;;;;44.40;15.90;;;;;;;2.19;61.46;99177.34;107065;1256;67983;-39
2023/11/21 11:00:43;;;;;;;26.40;15.20;;;;;;;2.18;61.21;99165.13;107064;1257;71967;-39
2023/11/21 11:03:14;;;;;;;33.90;15.30;;;;;;;2.22;61.00;99172.27;107223;1260;60324;-39
2023/11/21 11:05:51;;;;;;;34.10;15.10;;;;;;;2.26;61.10;99176.48;107054;1256;60093;-39
2023/11/21 11:08:25;;;;;;;29.20;16.10;;;;;;;2.30;60.99;99175.94;107115;1256;73880;-39
2023/11/21 11:10:55;;;;;;;30.20;16.00;;;;;;;2.30;60.84;99171.45;107132;1256;67442;-39
2023/11/21 11:13:23;;;;;;;30.90;17.00;;;;;;;2.28;60.96;99162.84;107118;1257;72315;-39
2023/11/21 11:15:59;;;;;;;28.70;16.40;;;;;;;2.24;60.79;99162.73;107219;1261;60557;-39
2023/11/21 11:18:30;;;;;;;29.00;16.30;;;;;;;2.19;61.30;99166.76;107139;1257;60374;-39
2023/11/21 11:21:28;;;;;;;30.00;16.30;;;;;;;2.17;61.21;99167.08;107055;1256;72841;-39
2023/11/21 11:24:07;;;;;;;29.60;16.20;;;;;;;2.13;61.30;99164.80;107134;1256;66292;-39